Time;durP1;ratioP1;P1;durP2;ratioP2;P2;SDS_P1;SDS_P2;PMS_P1;PMS_P2;Temp;Humidity;BMP_temperature;BMP_pressure;BME280_temperature;BME280_humidity;BME280_pressure;Samples;Min_cycle;Max_cycle;Signal;HPM_P1;HPM_P2
2021/01/25 00:00:12;;;;;;;1.30;1.20;;;8.20;76.70;;;;;;4967177;28;20210;-76
2021/01/25 00:02:37;;;;;;;1.30;1.20;;;8.20;76.60;;;;;;4969060;28;20214;-76
2021/01/25 00:05:08;;;;;;;1.83;1.50;;;8.30;76.50;;;;;;4951251;28;20676;-76
2021/01/25 00:07:36;;;;;;;1.20;1.20;;;8.30;76.30;;;;;;4966407;28;20662;-76
2021/01/25 00:10:04;;;;;;;1.37;1.20;;;8.30;76.30;;;;;;4964306;28;20206;-76
2021/01/25 00:12:29;;;;;;;2.10;1.43;;;8.30;76.30;;;;;;4968418;28;20182;-76
2021/01/25 00:14:55;;;;;;;1.73;1.40;;;8.40;76.20;;;;;;4968352;28;20241;-76
2021/01/25 00:17:21;;;;;;;2.40;1.40;;;8.40;76.20;;;;;;4965569;28;20194;-76
2021/01/25 00:19:47;;;;;;;0.80;0.80;;;8.40;76.20;;;;;;4968243;28;21026;-76
2021/01/25 00:22:13;;;;;;;0.67;0.67;;;8.50;76.10;;;;;;4949970;28;20293;-76
2021/01/25 00:24:39;;;;;;;1.43;1.10;;;8.50;76.00;;;;;;4968105;28;20710;-76
2021/01/25 00:27:05;;;;;;;0.70;0.70;;;8.50;76.20;;;;;;4967758;28;20191;-76
2021/01/25 00:29:30;;;;;;;2.73;1.10;;;8.50;76.00;;;;;;4950395;28;20276;-76
2021/01/25 00:31:58;;;;;;;1.80;0.80;;;8.50;75.90;;;;;;4967967;28;20651;-76
2021/01/25 00:34:27;;;;;;;1.03;0.73;;;8.50;76.00;;;;;;4966131;28;20178;-76
2021/01/25 00:36:53;;;;;;;0.80;0.80;;;8.50;76.00;;;;;;4950293;28;20189;-76
2021/01/25 00:39:18;;;;;;;0.60;0.60;;;8.50;76.00;;;;;;4967502;28;20182;-76
2021/01/25 00:41:44;;;;;;;0.70;0.70;;;8.60;76.00;;;;;;4965990;28;20194;-76
2021/01/25 00:44:15;;;;;;;0.50;0.50;;;8.60;76.30;;;;;;4968151;28;20658;-76
2021/01/25 00:46:41;;;;;;;1.57;0.60;;;8.50;76.10;;;;;;4967065;28;20183;-76
2021/01/25 00:49:07;;;;;;;0.50;0.50;;;8.50;76.20;;;;;;4950433;28;20565;-76
2021/01/25 00:51:33;;;;;;;0.70;0.70;;;8.50;76.40;;;;;;4950242;28;20628;-76
2021/01/25 00:53:59;;;;;;;0.90;0.90;;;8.50;76.30;;;;;;4966495;28;20237;-77
2021/01/25 00:56:24;;;;;;;1.00;0.83;;;8.50;76.30;;;;;;4966233;28;20216;-76
2021/01/25 00:58:50;;;;;;;1.27;0.60;;;8.50;76.30;;;;;;4950693;28;20222;-76
2021/01/25 01:01:16;;;;;;;0.70;0.70;;;8.50;76.30;;;;;;4967492;28;20194;-76
2021/01/25 01:03:41;;;;;;;1.63;0.87;;;8.60;76.30;;;;;;4949917;28;20624;-76
2021/01/25 01:06:07;;;;;;;2.53;0.60;;;8.60;76.40;;;;;;4966035;28;20182;-76
2021/01/25 01:08:33;;;;;;;0.80;0.80;;;8.60;76.70;;;;;;4966951;28;20891;-77
2021/01/25 01:10:59;;;;;;;0.80;0.80;;;8.60;76.60;;;;;;4966392;28;20186;-76
2021/01/25 01:13:25;;;;;;;2.13;0.97;;;8.60;76.60;;;;;;4967447;28;20542;-76
2021/01/25 01:15:51;;;;;;;0.70;0.70;;;8.70;76.50;;;;;;4966985;28;20188;-77
2021/01/25 01:18:17;;;;;;;0.70;0.70;;;8.70;76.40;;;;;;4967134;28;20555;-76
2021/01/25 01:20:43;;;;;;;0.70;0.70;;;8.70;76.50;;;;;;4967004;28;20592;-76
2021/01/25 01:23:09;;;;;;;0.60;0.60;;;8.70;76.40;;;;;;4966929;28;20186;-76
2021/01/25 01:25:34;;;;;;;3.67;0.60;;;8.70;76.40;;;;;;4967601;28;20289;-77
2021/01/25 01:28:00;;;;;;;0.73;0.73;;;8.70;76.40;;;;;;4966192;28;20787;-76
2021/01/25 01:30:26;;;;;;;1.80;1.00;;;8.70;76.60;;;;;;4949411;28;20242;-76
2021/01/25 01:32:52;;;;;;;1.73;1.07;;;8.70;76.70;;;;;;4966969;28;20190;-76
2021/01/25 01:35:18;;;;;;;1.90;1.00;;;8.70;76.40;;;;;;4964993;28;20183;-76
2021/01/25 01:37:43;;;;;;;3.67;1.23;;;8.70;76.50;;;;;;4966594;28;20202;-76
2021/01/25 01:40:11;;;;;;;5.30;1.03;;;8.70;76.50;;;;;;4966982;28;20285;-76
2021/01/25 01:42:38;;;;;;;1.60;1.50;;;8.80;76.40;;;;;;4949457;28;20190;-76
2021/01/25 01:45:05;;;;;;;0.90;0.77;;;8.80;76.30;;;;;;4950093;28;20190;-76
2021/01/25 01:47:32;;;;;;;0.80;0.80;;;8.80;76.20;;;;;;4966023;28;20182;-76
2021/01/25 01:49:59;;;;;;;1.57;1.03;;;8.80;76.20;;;;;;4967124;28;20212;-76
2021/01/25 01:52:25;;;;;;;1.07;1.07;;;8.70;76.30;;;;;;4966717;28;20182;-76
2021/01/25 01:54:57;;;;;;;2.83;0.97;;;8.70;76.40;;;;;;4966590;28;20189;-76
2021/01/25 01:57:23;;;;;;;1.20;1.10;;;8.70;76.40;;;;;;4948552;28;20182;-76
2021/01/25 01:59:49;;;;;;;0.93;0.93;;;8.60;76.50;;;;;;4963556;28;20210;-76
2021/01/25 02:02:15;;;;;;;2.50;1.10;;;8.60;77.00;;;;;;4965617;28;20198;-76
2021/01/25 02:04:40;;;;;;;3.60;1.20;;;8.50;77.30;;;;;;4965081;28;20209;-77
2021/01/25 02:07:08;;;;;;;1.33;1.27;;;8.50;77.20;;;;;;4965899;28;20269;-75
2021/01/25 02:09:39;;;;;;;5.27;1.57;;;8.50;77.10;;;;;;4965986;28;20276;-75
2021/01/25 02:12:07;;;;;;;1.47;1.37;;;8.50;77.10;;;;;;4966956;28;20234;-75
2021/01/25 02:14:33;;;;;;;1.00;0.90;;;8.50;77.00;;;;;;4948300;28;20847;-76
2021/01/25 02:16:59;;;;;;;1.97;1.87;;;8.50;77.30;;;;;;4952344;28;20297;-76
2021/01/25 02:19:34;;;;;;;1.50;1.40;;;8.50;77.40;;;;;;4968152;28;20336;-77
2021/01/25 02:22:12;;;;;;;1.40;1.30;;;8.40;77.40;;;;;;4965431;28;20647;-76
2021/01/25 02:25:01;;;;;;;0.90;0.90;;;8.50;77.50;;;;;;4964783;28;20178;-77
2021/01/25 02:27:36;;;;;;;4.53;1.20;;;8.50;77.60;;;;;;4968896;28;20185;-77
2021/01/25 02:30:06;;;;;;;2.30;0.73;;;8.50;77.70;;;;;;4966185;28;20634;-77
2021/01/25 02:32:32;;;;;;;0.77;0.70;;;8.50;78.10;;;;;;4967931;28;20178;-76
2021/01/25 02:35:02;;;;;;;1.13;1.03;;;8.60;78.20;;;;;;4952092;28;20182;-77
2021/01/25 02:37:29;;;;;;;1.17;0.87;;;8.60;78.50;;;;;;4966700;28;20977;-76
2021/01/25 02:39:57;;;;;;;1.23;1.20;;;8.60;78.60;;;;;;4969233;28;20794;-76
2021/01/25 02:42:25;;;;;;;1.27;1.17;;;8.60;78.50;;;;;;4967985;28;20186;-77
2021/01/25 02:44:51;;;;;;;0.87;0.87;;;8.70;78.50;;;;;;4970027;28;20214;-76
2021/01/25 02:47:19;;;;;;;0.73;0.73;;;8.70;78.40;;;;;;4952493;28;20182;-77
2021/01/25 02:49:45;;;;;;;1.10;1.10;;;8.70;78.30;;;;;;4970526;28;20273;-77
2021/01/25 02:52:12;;;;;;;0.80;0.80;;;8.70;78.40;;;;;;4969392;28;20182;-76
2021/01/25 02:54:38;;;;;;;1.50;0.60;;;8.80;78.60;;;;;;4952100;28;20701;-76
2021/01/25 02:57:07;;;;;;;0.50;0.50;;;8.80;78.90;;;;;;4968548;28;20265;-76
2021/01/25 02:59:33;;;;;;;0.70;0.70;;;8.80;78.90;;;;;;4967715;28;20197;-76
2021/01/25 03:01:59;;;;;;;0.90;0.90;;;8.80;79.70;;;;;;4950545;28;20217;-76
2021/01/25 03:04:25;;;;;;;0.90;0.90;;;8.80;79.70;;;;;;4968260;28;20213;-76
2021/01/25 03:06:52;;;;;;;1.00;1.00;;;8.90;80.00;;;;;;4968398;28;20237;-76
2021/01/25 03:09:17;;;;;;;1.00;0.50;;;8.90;79.90;;;;;;4951463;28;20644;-77
2021/01/25 03:11:43;;;;;;;2.47;0.60;;;9.00;80.60;;;;;;4969067;28;20210;-77
2021/01/25 03:14:10;;;;;;;0.60;0.60;;;9.00;80.50;;;;;;4951038;28;20571;-77
2021/01/25 03:16:36;;;;;;;0.70;0.63;;;9.00;80.80;;;;;;4969033;28;20183;-77
2021/01/25 03:19:03;;;;;;;1.00;0.80;;;9.00;81.50;;;;;;4969497;28;20209;-76
2021/01/25 03:21:30;;;;;;;0.90;0.90;;;9.10;81.60;;;;;;4951091;28;20193;-75
2021/01/25 03:23:55;;;;;;;0.93;0.93;;;9.10;81.40;;;;;;4969365;28;20217;-74
2021/01/25 03:26:21;;;;;;;0.60;0.60;;;9.10;81.10;;;;;;4968153;28;20186;-74
2021/01/25 03:28:47;;;;;;;0.60;0.60;;;9.10;81.60;;;;;;4969457;28;20196;-75
2021/01/25 03:31:12;;;;;;;0.67;0.67;;;9.00;82.90;;;;;;4970486;28;20174;-75
2021/01/25 03:33:38;;;;;;;0.80;0.70;;;9.00;82.60;;;;;;4972771;28;20702;-75
2021/01/25 03:36:04;;;;;;;0.30;0.30;;;9.10;82.60;;;;;;4970644;28;20569;-77
2021/01/25 03:38:29;;;;;;;0.55;0.30;;;9.10;83.00;;;;;;4968712;28;20179;-74
2021/01/25 03:40:55;;;;;;;0.60;0.60;;;9.00;84.20;;;;;;4954620;28;20253;-75
2021/01/25 03:43:21;;;;;;;0.40;0.40;;;9.00;85.00;;;;;;4968712;28;20205;-76
2021/01/25 03:45:46;;;;;;;1.23;0.43;;;9.00;84.80;;;;;;4981501;28;20204;-74
2021/01/25 03:48:12;;;;;;;0.40;0.40;;;9.00;85.30;;;;;;4969509;28;20698;-76
2021/01/25 03:50:38;;;;;;;0.30;0.30;;;9.10;84.60;;;;;;4968877;28;20212;-77
2021/01/25 03:53:04;;;;;;;0.47;0.47;;;9.10;84.80;;;;;;4968190;28;20189;-76
2021/01/25 03:55:30;;;;;;;0.30;0.30;;;9.10;84.40;;;;;;4952283;28;20265;-75
2021/01/25 03:57:56;;;;;;;0.10;0.10;;;9.10;84.00;;;;;;4968918;28;20254;-75
2021/01/25 04:00:22;;;;;;;0.20;0.20;;;9.10;83.80;;;;;;4970522;28;20233;-75
2021/01/25 04:02:48;;;;;;;0.40;0.40;;;9.10;83.60;;;;;;4966050;28;20189;-75
2021/01/25 04:05:14;;;;;;;0.20;0.20;;;9.10;83.80;;;;;;4968355;28;20190;-75
2021/01/25 04:07:40;;;;;;;0.10;0.10;;;9.20;83.70;;;;;;4967565;28;20582;-75
2021/01/25 04:10:07;;;;;;;0.30;0.30;;;9.20;83.70;;;;;;4967508;28;20198;-75
2021/01/25 04:12:33;;;;;;;0.20;0.20;;;9.20;83.20;;;;;;4967726;28;20175;-74
2021/01/25 04:14:58;;;;;;;0.10;0.10;;;9.30;82.40;;;;;;4967922;28;20517;-75
2021/01/25 04:17:25;;;;;;;0.17;0.17;;;9.30;82.40;;;;;;4966584;28;20186;-74
2021/01/25 04:19:51;;;;;;;0.00;0.00;;;9.40;82.20;;;;;;4966556;28;20201;-75
2021/01/25 04:22:17;;;;;;;0.00;0.00;;;9.40;81.50;;;;;;4957749;28;20189;-75
2021/01/25 04:24:42;;;;;;;0.00;0.00;;;9.50;81.20;;;;;;4964990;28;20183;-76
2021/01/25 04:27:13;;;;;;;0.00;0.00;;;9.50;80.60;;;;;;4968202;28;20182;-76
2021/01/25 04:29:42;;;;;;;0.00;0.00;;;9.60;79.80;;;;;;4950591;28;20210;-76
2021/01/25 04:32:09;;;;;;;0.10;0.10;;;9.70;79.80;;;;;;4966970;28;20178;-75
2021/01/25 04:34:35;;;;;;;0.00;0.00;;;9.70;79.90;;;;;;4967331;28;20182;-75
2021/01/25 04:37:02;;;;;;;0.10;0.10;;;9.70;80.10;;;;;;4967701;28;20185;-75
2021/01/25 04:39:28;;;;;;;0.17;0.17;;;9.70;79.90;;;;;;4967135;28;20659;-76
2021/01/25 04:41:54;;;;;;;0.13;0.10;;;9.70;79.90;;;;;;4966712;28;20631;-76
2021/01/25 04:44:23;;;;;;;0.53;0.17;;;9.70;79.50;;;;;;4950269;28;20221;-75
2021/01/25 04:46:49;;;;;;;0.17;0.17;;;9.80;79.30;;;;;;4965953;28;20189;-75
2021/01/25 04:49:15;;;;;;;0.20;0.20;;;9.80;79.40;;;;;;4971164;28;20210;-75
2021/01/25 04:51:41;;;;;;;0.10;0.10;;;9.80;79.50;;;;;;4954722;28;20273;-75
2021/01/25 04:54:08;;;;;;;0.10;0.10;;;9.80;79.70;;;;;;4969935;28;20261;-75
2021/01/25 04:56:37;;;;;;;0.23;0.10;;;9.80;79.60;;;;;;4968630;28;20207;-75
2021/01/25 04:59:03;;;;;;;0.15;0.15;;;9.70;79.60;;;;;;4970874;28;20194;-75
2021/01/25 05:01:29;;;;;;;0.10;0.10;;;9.70;79.40;;;;;;4963941;28;20182;-75
2021/01/25 05:03:55;;;;;;;0.10;0.10;;;9.60;78.80;;;;;;4950310;28;20213;-75
2021/01/25 05:06:21;;;;;;;0.33;0.30;;;9.60;79.20;;;;;;4966481;28;20186;-76
2021/01/25 05:08:46;;;;;;;0.10;0.10;;;9.70;79.40;;;;;;4949311;28;20182;-76
2021/01/25 05:11:13;;;;;;;0.00;0.00;;;9.70;79.10;;;;;;4949994;28;20187;-74
2021/01/25 05:13:39;;;;;;;0.20;0.20;;;9.70;78.60;;;;;;4966251;28;20638;-77
2021/01/25 05:16:15;;;;;;;0.17;0.17;;;9.70;78.60;;;;;;4948673;28;20249;-77
2021/01/25 05:18:41;;;;;;;0.20;0.20;;;9.80;78.50;;;;;;4974156;28;21103;-76
2021/01/25 05:21:07;;;;;;;0.63;0.25;;;9.80;78.60;;;;;;4955533;28;20664;-76
2021/01/25 05:23:38;;;;;;;0.20;0.20;;;9.80;78.50;;;;;;4973229;28;20247;-76
2021/01/25 05:26:10;;;;;;;0.20;0.20;;;9.70;78.60;;;;;;4947776;28;20182;-76
2021/01/25 05:28:43;;;;;;;0.17;0.17;;;9.70;78.40;;;;;;4960311;28;20690;-76
2021/01/25 05:31:22;;;;;;;0.13;0.13;;;9.70;78.30;;;;;;4966969;28;20178;-75
2021/01/25 05:33:49;;;;;;;0.10;0.10;;;9.70;78.10;;;;;;4964357;28;20190;-75
2021/01/25 05:36:25;;;;;;;0.30;0.30;;;9.70;78.60;;;;;;4972812;28;20178;-76
2021/01/25 05:38:52;;;;;;;0.38;0.10;;;9.70;79.00;;;;;;4971868;28;20174;-75
2021/01/25 05:41:20;;;;;;;0.10;0.10;;;9.70;78.20;;;;;;4973732;28;20257;-76
2021/01/25 05:43:47;;;;;;;0.08;0.08;;;9.70;78.20;;;;;;4967447;28;20179;-75
2021/01/25 05:46:17;;;;;;;0.10;0.10;;;9.70;78.00;;;;;;4966411;28;20664;-75
2021/01/25 05:48:44;;;;;;;0.10;0.10;;;9.80;77.70;;;;;;4966934;28;20186;-75
2021/01/25 05:51:15;;;;;;;0.10;0.10;;;9.80;77.70;;;;;;4950240;28;20739;-73
2021/01/25 05:53:46;;;;;;;0.00;0.00;;;9.80;77.60;;;;;;4972753;28;20185;-73
2021/01/25 05:56:14;;;;;;;0.00;0.00;;;9.80;77.80;;;;;;4975811;28;20179;-73
2021/01/25 05:58:40;;;;;;;0.00;0.00;;;9.80;78.00;;;;;;4971151;28;20189;-72
2021/01/25 06:01:06;;;;;;;0.10;0.10;;;9.80;78.30;;;;;;4972966;28;20970;-80
2021/01/25 06:03:37;;;;;;;0.00;0.00;;;9.80;78.50;;;;;;4955770;28;20182;-80
2021/01/25 06:06:16;;;;;;;0.00;0.00;;;9.90;78.40;;;;;;4955399;28;20182;-80
2021/01/25 06:08:51;;;;;;;0.10;0.10;;;9.80;78.60;;;;;;4972975;28;20553;-79
2021/01/25 06:11:26;;;;;;;0.00;0.00;;;9.80;79.40;;;;;;4972198;28;20269;-80
2021/01/25 06:13:52;;;;;;;0.10;0.10;;;9.70;79.70;;;;;;4972234;28;20178;-80
2021/01/25 06:16:21;;;;;;;0.00;0.00;;;9.70;79.80;;;;;;4958093;28;20201;-80
2021/01/25 06:18:47;;;;;;;0.00;0.00;;;9.70;79.90;;;;;;4973637;28;20170;-79
2021/01/25 06:21:21;;;;;;;0.00;0.00;;;9.70;79.80;;;;;;4951601;28;20555;-81
2021/01/25 06:23:47;;;;;;;0.10;0.10;;;9.80;79.70;;;;;;4955052;28;20198;-80
2021/01/25 06:26:14;;;;;;;0.00;0.00;;;9.80;79.60;;;;;;4956112;28;20209;-81
2021/01/25 06:28:42;;;;;;;1.45;0.10;;;9.90;79.60;;;;;;4969553;28;20190;-75
2021/01/25 06:31:08;;;;;;;0.10;0.10;;;9.90;79.70;;;;;;4959205;28;20210;-75
2021/01/25 06:33:37;;;;;;;0.10;0.10;;;9.90;79.60;;;;;;4951988;28;20211;-75
2021/01/25 06:36:08;;;;;;;0.20;0.10;;;9.90;79.60;;;;;;4948734;28;20683;-80
2021/01/25 06:38:35;;;;;;;0.15;0.10;;;9.90;80.00;;;;;;4970557;28;21097;-78
2021/01/25 06:41:09;;;;;;;0.10;0.10;;;9.90;80.00;;;;;;4949954;29;20210;-82
2021/01/25 06:43:35;;;;;;;0.10;0.10;;;9.80;80.20;;;;;;4955184;28;20174;-81
2021/01/25 06:46:02;;;;;;;0.20;0.13;;;9.80;80.30;;;;;;4976667;28;20182;-83
2021/01/25 06:48:29;;;;;;;0.10;0.10;;;9.80;80.30;;;;;;4961185;28;20217;-77
2021/01/25 06:50:54;;;;;;;0.10;0.10;;;9.80;80.10;;;;;;4970811;28;20202;-77
2021/01/25 06:53:26;;;;;;;0.20;0.20;;;9.80;80.30;;;;;;4969883;28;20186;-77
2021/01/25 06:55:58;;;;;;;0.10;0.10;;;9.80;80.30;;;;;;4976501;28;20253;-77
2021/01/25 06:58:29;;;;;;;0.38;0.38;;;9.80;79.90;;;;;;4950518;28;20178;-76
2021/01/25 07:00:56;;;;;;;0.20;0.20;;;9.80;80.40;;;;;;4968061;28;20171;-78
2021/01/25 07:03:23;;;;;;;0.20;0.20;;;9.80;80.20;;;;;;4951491;28;20186;-77
2021/01/25 07:05:50;;;;;;;0.20;0.20;;;9.80;80.50;;;;;;4950517;28;20197;-77
2021/01/25 07:08:21;;;;;;;0.10;0.10;;;9.80;80.90;;;;;;4948986;28;20557;-76
2021/01/25 07:10:59;;;;;;;0.22;0.22;;;9.70;80.40;;;;;;4960097;28;20292;-78
2021/01/25 07:13:27;;;;;;;0.20;0.20;;;9.60;80.80;;;;;;4976696;28;20196;-75
2021/01/25 07:15:54;;;;;;;0.40;0.30;;;9.70;81.40;;;;;;4973860;28;20194;-77
2021/01/25 07:18:21;;;;;;;0.10;0.10;;;9.70;81.40;;;;;;4952452;28;20218;-76
2021/01/25 07:20:51;;;;;;;1.63;0.28;;;9.70;82.00;;;;;;4968667;28;20186;-76
2021/01/25 07:23:19;;;;;;;0.20;0.20;;;9.60;82.70;;;;;;4954982;28;20178;-77
2021/01/25 07:25:46;;;;;;;4.68;0.35;;;9.60;82.20;;;;;;4971325;28;20266;-76
2021/01/25 07:28:12;;;;;;;0.20;0.20;;;9.50;82.50;;;;;;4968681;28;20198;-75
2021/01/25 07:30:38;;;;;;;0.20;0.20;;;9.40;82.10;;;;;;4961061;28;20208;-78
2021/01/25 07:33:04;;;;;;;0.20;0.20;;;9.40;82.70;;;;;;4971164;28;20274;-80
2021/01/25 07:35:32;;;;;;;0.10;0.10;;;9.30;83.50;;;;;;4956217;28;20190;-81
2021/01/25 07:40:46;;;;;;;0.10;0.10;;;9.10;83.20;;;;;;4970367;28;20189;-78
2021/01/25 07:43:17;;;;;;;0.20;0.20;;;9.00;84.70;;;;;;4970645;28;20245;-79
2021/01/25 07:45:44;;;;;;;0.50;0.30;;;8.80;86.50;;;;;;4953180;28;20691;-80
2021/01/25 07:48:11;;;;;;;0.20;0.20;;;8.70;87.70;;;;;;4968142;28;20190;-80
2021/01/25 07:50:38;;;;;;;0.23;0.23;;;8.70;88.80;;;;;;4963263;28;20218;-80
2021/01/25 07:53:05;;;;;;;0.50;0.50;;;8.40;84.70;;;;;;4965003;28;20668;-81
2021/01/25 07:55:35;;;;;;;3.70;0.40;;;8.00;84.00;;;;;;4970525;28;20616;-76
2021/01/25 08:01:26;;;;;;;0.20;0.20;;;7.10;82.90;;;;;;4978678;28;20262;-76
2021/01/25 08:04:05;;;;;;;0.27;0.20;;;6.50;82.90;;;;;;4946123;28;20663;-77
2021/01/25 08:06:37;;;;;;;0.10;0.10;;;6.10;83.50;;;;;;4969473;28;20213;-76
2021/01/25 08:09:13;;;;;;;0.30;0.30;;;5.60;82.60;;;;;;4964606;28;20721;-79
2021/01/25 08:11:40;;;;;;;0.20;0.20;;;5.00;83.90;;;;;;4953889;28;20186;-78
2021/01/25 08:14:20;;;;;;;0.70;0.20;;;4.70;84.80;;;;;;4971300;28;20208;-80
2021/01/25 08:17:01;;;;;;;0.30;0.30;;;4.40;85.50;;;;;;4970901;28;20223;-78
2021/01/25 08:19:35;;;;;;;0.30;0.30;;;3.90;86.50;;;;;;4969036;28;20193;-77
2021/01/25 08:22:04;;;;;;;0.30;0.30;;;3.80;87.60;;;;;;4972904;28;20203;-77
2021/01/25 08:24:32;;;;;;;0.13;0.13;;;3.60;88.10;;;;;;4979821;28;20217;-77
2021/01/25 08:27:15;;;;;;;0.50;0.30;;;3.40;88.90;;;;;;4972108;28;20193;-77
2021/01/25 08:29:44;;;;;;;0.30;0.30;;;3.20;89.80;;;;;;4963507;28;20213;-77
2021/01/25 08:32:34;;;;;;;0.83;0.50;;;3.00;90.60;;;;;;4969799;28;20578;-81
2021/01/25 08:35:05;;;;;;;0.40;0.40;;;2.90;91.30;;;;;;4928401;29;20207;-81
2021/01/25 08:40:22;;;;;;;0.40;0.20;;;2.70;92.00;;;;;;4928406;29;21045;-81
2021/01/25 08:42:48;;;;;;;0.20;0.20;;;2.60;91.90;;;;;;4914847;29;20183;-82
2021/01/25 08:45:28;;;;;;;0.20;0.20;;;2.50;91.80;;;;;;4918992;29;20210;-83
2021/01/25 08:48:08;;;;;;;0.40;0.40;;;2.60;92.10;;;;;;4927425;29;20187;-82
2021/01/25 08:50:34;;;;;;;0.30;0.30;;;2.60;92.40;;;;;;4914755;29;20219;-83
2021/01/25 08:53:09;;;;;;;1.03;0.20;;;2.50;92.50;;;;;;4915961;29;20196;-82
2021/01/25 08:55:35;;;;;;;0.23;0.23;;;2.50;92.60;;;;;;4936868;29;20234;-83
2021/01/25 08:58:00;;;;;;;0.10;0.10;;;2.40;92.10;;;;;;4925821;29;20190;-82
2021/01/25 09:00:29;;;;;;;0.10;0.10;;;2.50;91.90;;;;;;4938901;29;21020;-81
2021/01/25 09:03:03;;;;;;;0.10;0.10;;;2.90;92.30;;;;;;4930336;29;20198;-82
2021/01/25 09:05:31;;;;;;;0.10;0.10;;;3.10;90.30;;;;;;4928652;29;20184;-81
2021/01/25 09:07:58;;;;;;;0.10;0.10;;;3.40;89.60;;;;;;4928984;29;20203;-82
2021/01/25 09:10:24;;;;;;;0.13;0.13;;;4.20;87.90;;;;;;4912681;29;20468;-79
2021/01/25 09:12:50;;;;;;;0.20;0.20;;;5.00;85.20;;;;;;4943365;28;20663;-80
2021/01/25 09:15:17;;;;;;;0.10;0.10;;;5.70;83.30;;;;;;4949005;29;20207;-82
2021/01/25 09:17:43;;;;;;;0.20;0.20;;;6.50;80.00;;;;;;4933143;29;20285;-81
2021/01/25 09:20:10;;;;;;;0.20;0.20;;;7.30;78.40;;;;;;4953452;28;20269;-82
2021/01/25 09:22:36;;;;;;;0.33;0.33;;;8.00;75.50;;;;;;4950775;28;20192;-81
2021/01/25 09:25:07;;;;;;;0.40;0.40;;;8.50;73.40;;;;;;4953724;28;20237;-82
2021/01/25 09:27:33;;;;;;;0.70;0.70;;;9.00;73.40;;;;;;4959164;28;20933;-81
2021/01/25 09:29:58;;;;;;;1.80;0.63;;;9.70;72.00;;;;;;4968497;28;20324;-83
2021/01/25 09:32:27;;;;;;;0.77;0.77;;;10.30;69.80;;;;;;4972613;28;20824;-80
2021/01/25 09:34:56;;;;;;;0.30;0.30;;;10.90;68.70;;;;;;4961121;28;20186;-80
2021/01/25 09:37:21;;;;;;;0.30;0.30;;;11.20;65.90;;;;;;4976608;28;20193;-78
2021/01/25 09:39:47;;;;;;;0.30;0.30;;;11.20;64.20;;;;;;4956566;28;20182;-83
2021/01/25 09:42:13;;;;;;;0.30;0.30;;;11.30;63.80;;;;;;4956282;28;20277;-83
2021/01/25 09:44:39;;;;;;;0.25;0.25;;;11.10;63.00;;;;;;4981068;28;20178;-83
2021/01/25 09:47:05;;;;;;;0.40;0.40;;;10.90;63.30;;;;;;4957413;28;20182;-82
2021/01/25 09:49:31;;;;;;;0.20;0.20;;;10.90;63.90;;;;;;4957131;28;20209;-82
2021/01/25 09:51:58;;;;;;;0.25;0.25;;;11.20;64.40;;;;;;4961394;28;20189;-83
2021/01/25 09:54:24;;;;;;;0.40;0.40;;;11.60;63.90;;;;;;4975497;28;20178;-83
2021/01/25 09:56:49;;;;;;;0.73;0.57;;;12.10;62.70;;;;;;4994380;28;20181;-82
2021/01/25 09:59:16;;;;;;;0.30;0.30;;;12.30;61.60;;;;;;4977513;28;20193;-83
2021/01/25 10:01:41;;;;;;;3.58;0.63;;;12.10;60.80;;;;;;4994306;28;20209;-83
2021/01/25 10:04:07;;;;;;;0.40;0.30;;;12.10;61.70;;;;;;4981385;28;20212;-82
2021/01/25 10:06:33;;;;;;;0.70;0.55;;;12.40;61.00;;;;;;4973256;28;20200;-83
2021/01/25 10:08:59;;;;;;;0.30;0.30;;;12.70;61.00;;;;;;4994344;28;20174;-83
2021/01/25 10:11:26;;;;;;;0.38;0.38;;;13.10;60.40;;;;;;4981593;28;20190;-83
2021/01/25 10:20:37;;;;;;;0.22;0.22;;;12.80;59.40;;;;;;4956813;29;20170;-85
2021/01/25 10:23:04;;;;;;;0.40;0.40;;;12.60;61.00;;;;;;4938905;28;20213;-82
2021/01/25 10:25:30;;;;;;;0.30;0.30;;;12.10;61.00;;;;;;4959737;28;20186;-82
2021/01/25 10:27:56;;;;;;;0.10;0.10;;;12.10;62.30;;;;;;4952898;29;20270;-82
2021/01/25 10:30:22;;;;;;;0.20;0.20;;;12.40;62.20;;;;;;4943655;28;20284;-83
2021/01/25 10:32:48;;;;;;;0.38;0.28;;;12.90;61.90;;;;;;4955274;28;20169;-83
2021/01/25 10:35:14;;;;;;;0.20;0.20;;;13.20;61.30;;;;;;4957215;28;20185;-84
2021/01/25 10:37:41;;;;;;;0.30;0.30;;;13.50;60.60;;;;;;4982296;28;20216;-78
2021/01/25 10:40:07;;;;;;;0.30;0.30;;;13.70;60.70;;;;;;4974335;28;20268;-80
2021/01/25 10:42:33;;;;;;;0.30;0.30;;;14.10;60.90;;;;;;4957676;28;21062;-80
2021/01/25 10:44:59;;;;;;;0.30;0.30;;;14.60;59.40;;;;;;4956896;28;20186;-80
2021/01/25 10:47:25;;;;;;;0.30;0.30;;;14.90;58.10;;;;;;4956830;28;20182;-80
2021/01/25 10:49:53;;;;;;;0.75;0.30;;;15.20;58.00;;;;;;4987135;28;20217;-80
2021/01/25 10:52:19;;;;;;;0.35;0.30;;;15.70;57.70;;;;;;4955600;28;20184;-80
2021/01/25 10:54:45;;;;;;;0.22;0.20;;;16.20;57.60;;;;;;4960685;28;20176;-81
2021/01/25 10:57:12;;;;;;;0.47;0.15;;;16.60;56.00;;;;;;4949575;28;20261;-82
2021/01/25 10:59:38;;;;;;;1.65;0.20;;;16.90;54.70;;;;;;4948571;28;20194;-80
2021/01/25 11:02:07;;;;;;;0.20;0.20;;;16.60;53.90;;;;;;4946258;29;20665;-80
2021/01/25 11:04:33;;;;;;;1.65;0.38;;;16.10;55.20;;;;;;4944876;28;20189;-81
2021/01/25 11:06:58;;;;;;;0.47;0.40;;;15.40;56.10;;;;;;4941224;29;20274;-81
2021/01/25 11:09:24;;;;;;;0.40;0.40;;;15.00;57.80;;;;;;4936660;29;20243;-81
2021/01/25 11:11:53;;;;;;;0.65;0.40;;;15.10;58.20;;;;;;4932161;29;20194;-81
2021/01/25 11:14:19;;;;;;;0.57;0.55;;;15.40;57.50;;;;;;4954798;28;20703;-81
2021/01/25 11:16:44;;;;;;;0.50;0.50;;;15.60;57.40;;;;;;4966491;28;20182;-81
2021/01/25 11:19:11;;;;;;;0.50;0.50;;;16.10;56.30;;;;;;4971960;28;20186;-81
2021/01/25 11:21:38;;;;;;;0.68;0.50;;;16.40;56.00;;;;;;4954421;28;20194;-81
2021/01/25 11:24:05;;;;;;;0.47;0.47;;;16.40;54.80;;;;;;4971807;28;20255;-82
2021/01/25 11:26:36;;;;;;;0.45;0.45;;;16.40;54.90;;;;;;4973175;28;20251;-80
2021/01/25 11:29:02;;;;;;;0.40;0.40;;;16.50;55.60;;;;;;4972122;28;20701;-81
2021/01/25 11:31:28;;;;;;;0.60;0.60;;;16.60;54.90;;;;;;4959788;28;20185;-81
2021/01/25 11:33:53;;;;;;;0.70;0.70;;;16.80;54.30;;;;;;4970722;28;20190;-80
2021/01/25 11:36:19;;;;;;;0.60;0.57;;;16.90;53.40;;;;;;4987736;28;20914;-82
2021/01/25 11:38:45;;;;;;;0.60;0.60;;;17.00;54.60;;;;;;4986790;28;20182;-81
2021/01/25 11:41:10;;;;;;;0.50;0.50;;;17.10;54.50;;;;;;4969999;28;20712;-80
2021/01/25 11:43:36;;;;;;;1.33;0.70;;;17.40;53.40;;;;;;4962969;28;20197;-81
2021/01/25 11:46:02;;;;;;;0.80;0.80;;;17.60;53.30;;;;;;4966479;28;20182;-81
2021/01/25 11:48:28;;;;;;;0.60;0.60;;;17.70;53.30;;;;;;4938226;29;20690;-81
2021/01/25 11:50:53;;;;;;;0.70;0.70;;;17.60;54.00;;;;;;4946884;28;20656;-80
2021/01/25 11:53:20;;;;;;;0.90;0.70;;;17.40;53.30;;;;;;4954266;28;20175;-80
2021/01/25 11:55:45;;;;;;;1.13;0.73;;;16.80;54.10;;;;;;4953756;28;20190;-80
2021/01/25 11:58:12;;;;;;;0.75;0.75;;;16.10;53.90;;;;;;4966480;28;20905;-78
2021/01/25 12:00:38;;;;;;;1.50;0.80;;;15.30;55.00;;;;;;4971271;28;20178;-79
2021/01/25 12:03:04;;;;;;;1.30;0.55;;;14.50;56.40;;;;;;4971418;28;20294;-84
2021/01/25 12:05:31;;;;;;;1.40;0.80;;;13.90;57.80;;;;;;4953376;28;20183;-84
2021/01/25 12:08:01;;;;;;;0.70;0.70;;;13.40;59.70;;;;;;4963107;28;20276;-81
2021/01/25 12:10:27;;;;;;;0.77;0.77;;;13.10;59.90;;;;;;4953296;28;20190;-78
2021/01/25 12:12:52;;;;;;;0.65;0.60;;;13.10;60.10;;;;;;4970854;28;20233;-77
2021/01/25 12:15:18;;;;;;;0.47;0.47;;;13.50;60.30;;;;;;4966178;28;20969;-75
2021/01/25 12:17:44;;;;;;;1.40;0.70;;;14.20;60.10;;;;;;4966744;28;20222;-76
2021/01/25 12:20:10;;;;;;;0.50;0.50;;;15.00;58.90;;;;;;4967238;28;20670;-75
2021/01/25 12:22:36;;;;;;;2.05;0.70;;;15.80;57.40;;;;;;4966004;28;20222;-75
2021/01/25 12:25:02;;;;;;;1.00;0.80;;;16.70;55.30;;;;;;4972075;28;20205;-75
2021/01/25 12:27:28;;;;;;;0.60;0.60;;;17.40;55.40;;;;;;4952753;28;20182;-73
2021/01/25 12:29:53;;;;;;;0.50;0.50;;;17.90;54.60;;;;;;4945608;28;20233;-74
2021/01/25 12:32:19;;;;;;;0.60;0.60;;;18.30;54.00;;;;;;4965646;28;20266;-73
2021/01/25 12:34:45;;;;;;;0.60;0.60;;;18.70;53.00;;;;;;4976663;28;20244;-74
2021/01/25 12:37:10;;;;;;;0.40;0.40;;;18.90;52.20;;;;;;4946778;28;20189;-74
2021/01/25 12:39:37;;;;;;;0.50;0.50;;;19.10;52.00;;;;;;4966433;28;20186;-74
2021/01/25 12:42:03;;;;;;;1.20;0.82;;;19.30;50.70;;;;;;4966159;28;20198;-75
2021/01/25 12:44:28;;;;;;;0.82;0.40;;;19.60;50.30;;;;;;4966592;28;20187;-75
2021/01/25 12:46:55;;;;;;;0.60;0.60;;;19.80;50.80;;;;;;4965370;28;20363;-74
2021/01/25 12:49:23;;;;;;;0.40;0.40;;;19.70;51.70;;;;;;4959111;28;20210;-74
2021/01/25 12:51:49;;;;;;;0.60;0.60;;;19.60;51.40;;;;;;4965026;28;20201;-74
2021/01/25 12:54:15;;;;;;;0.52;0.52;;;19.50;50.80;;;;;;4965881;28;20714;-74
2021/01/25 12:56:44;;;;;;;11.18;0.70;;;19.30;51.10;;;;;;4964665;28;20190;-74
2021/01/25 12:59:12;;;;;;;0.50;0.50;;;19.50;51.20;;;;;;4964031;28;20194;-74
2021/01/25 13:01:37;;;;;;;0.60;0.60;;;19.60;49.40;;;;;;4963450;28;20191;-74
2021/01/25 13:04:03;;;;;;;0.65;0.52;;;19.50;48.90;;;;;;4965272;28;20644;-74
2021/01/25 13:06:28;;;;;;;0.60;0.60;;;19.00;48.70;;;;;;4963997;28;20655;-76
2021/01/25 13:08:54;;;;;;;0.47;0.47;;;19.10;50.50;;;;;;4965578;28;20578;-74
2021/01/25 13:11:20;;;;;;;0.60;0.60;;;19.00;49.60;;;;;;4964575;28;20188;-74